Time;durP1;ratioP1;P1;durP2;ratioP2;P2;SDS_P1;SDS_P2;PMS_P1;PMS_P2;Temp;Humidity;BMP_temperature;BMP_pressure;BME280_temperature;BME280_humidity;BME280_pressure;Samples;Min_cycle;Max_cycle;Signal;HPM_P1;HPM_P2
2023/09/15 00:01:41;;;;;;;25.20;20.30;;;;;;;18.81;100.00;100045.04;105844;1261;71810;-52
2023/09/15 00:04:10;;;;;;;31.70;22.30;;;;;;;18.78;100.00;100048.61;104218;1260;65231;-52
2023/09/15 00:06:38;;;;;;;30.10;21.50;;;;;;;18.76;100.00;100048.56;104624;1266;70971;-52
2023/09/15 00:09:06;;;;;;;28.20;20.50;;;;;;;18.74;100.00;100043.95;104271;1260;61706;-49
2023/09/15 00:11:40;;;;;;;28.50;20.00;;;;;;;18.72;100.00;100045.74;104353;1260;59714;-48
2023/09/15 00:14:09;;;;;;;23.70;18.70;;;;;;;18.69;100.00;100049.11;104590;1260;72156;-50
2023/09/15 00:16:40;;;;;;;27.80;18.30;;;;;;;18.66;100.00;100047.15;104396;1260;66716;-49
2023/09/15 00:19:13;;;;;;;27.40;18.40;;;;;;;18.64;100.00;100048.02;104679;1266;71395;-50
2023/09/15 00:21:47;;;;;;;23.50;19.10;;;;;;;18.63;100.00;100053.54;104720;1261;62282;-49
2023/09/15 00:24:15;;;;;;;26.80;19.50;;;;;;;18.61;100.00;100050.61;105068;1260;59769;-49
2023/09/15 00:26:43;;;;;;;19.20;16.30;;;;;;;18.61;100.00;100049.73;104321;1260;71431;-50
2023/09/15 00:29:11;;;;;;;20.40;14.90;;;;;;;18.59;100.00;100048.57;104942;1261;67716;-51
2023/09/15 00:31:40;;;;;;;19.00;15.00;;;;;;;18.57;100.00;100049.30;104659;1266;71442;-49
2023/09/15 00:34:07;;;;;;;15.60;12.90;;;;;;;18.55;100.00;100047.96;105169;1261;61661;-50
2023/09/15 00:36:35;;;;;;;13.30;11.90;;;;;;;18.53;100.00;100053.16;104552;1260;60052;-50
2023/09/15 00:39:03;;;;;;;17.20;13.60;;;;;;;18.51;100.00;100049.88;104501;1266;72781;-48
2023/09/15 00:41:30;;;;;;;12.10;11.00;;;;;;;18.48;100.00;100050.11;104467;1260;66954;-50
2023/09/15 00:43:58;;;;;;;15.20;12.50;;;;;;;18.45;100.00;100051.11;104488;1263;71420;-49
2023/09/15 00:46:25;;;;;;;10.70;9.90;;;;;;;18.43;100.00;100058.36;104454;1259;61657;-51
2023/09/15 00:48:55;;;;;;;10.90;10.00;;;;;;;18.41;100.00;100057.59;104622;1258;60271;-50
2023/09/15 00:51:24;;;;;;;10.60;9.80;;;;;;;18.39;100.00;100061.35;104595;1260;72975;-48
2023/09/15 00:53:54;;;;;;;10.30;9.50;;;;;;;18.38;100.00;100063.73;104852;1263;66733;-49
2023/09/15 00:56:21;;;;;;;9.20;8.50;;;;;;;18.36;100.00;100067.55;104387;1264;70090;-49
2023/09/15 00:58:49;;;;;;;9.50;8.40;;;;;;;18.34;100.00;100062.66;104450;1263;60408;-49
2023/09/15 01:01:17;;;;;;;7.70;7.10;;;;;;;18.31;100.00;100060.33;105088;1263;60919;-52
2023/09/15 01:03:46;;;;;;;7.60;6.90;;;;;;;18.29;100.00;100063.95;105609;1257;73069;-48
2023/09/15 01:06:13;;;;;;;6.00;5.50;;;;;;;18.28;100.00;100066.23;104240;1257;67534;-49
2023/09/15 01:08:41;;;;;;;7.40;6.80;;;;;;;18.27;100.00;100067.19;104536;1257;73000;-50
2023/09/15 01:11:10;;;;;;;6.40;5.90;;;;;;;18.26;100.00;100069.79;104782;1258;61628;-51
2023/09/15 01:13:37;;;;;;;7.10;6.50;;;;;;;18.27;100.00;100069.93;104606;1257;60126;-49
2023/09/15 01:16:17;;;;;;;5.10;4.80;;;;;;;18.28;100.00;100074.61;108464;1257;71822;-51
2023/09/15 01:19:04;;;;;;;6.10;5.30;;;;;;;18.27;100.00;100076.48;107502;1257;66964;-52
2023/09/15 01:22:04;;;;;;;7.70;6.40;;;;;;;18.25;100.00;100079.66;104498;1260;71440;-49
2023/09/15 01:25:13;;;;;;;5.20;4.90;;;;;;;18.25;100.00;100081.34;105577;1258;62117;-51
2023/09/15 01:27:52;;;;;;;5.00;4.60;;;;;;;18.25;100.00;100084.02;103934;1266;60219;-52
2023/09/15 01:30:20;;;;;;;3.80;3.60;;;;;;;18.23;100.00;100079.81;104357;1257;71822;-49
2023/09/15 01:32:48;;;;;;;4.40;4.10;;;;;;;18.21;100.00;100078.92;104748;1257;67731;-49
2023/09/15 01:35:16;;;;;;;4.50;4.10;;;;;;;18.17;100.00;100082.65;104609;1263;72628;-51
2023/09/15 01:37:43;;;;;;;5.80;4.50;;;;;;;18.12;100.00;100089.33;104666;1263;60418;-51
2023/09/15 01:40:11;;;;;;;5.70;5.00;;;;;;;18.09;100.00;100095.05;104598;1257;59626;-51
2023/09/15 01:42:40;;;;;;;4.30;4.00;;;;;;;18.03;100.00;100094.20;104428;1257;73053;-50
2023/09/15 01:45:08;;;;;;;4.30;4.00;;;;;;;17.99;100.00;100099.57;104533;1263;66948;-50
2023/09/15 01:47:36;;;;;;;5.70;5.20;;;;;;;17.97;100.00;100100.27;108723;1259;72893;-51
2023/09/15 01:50:04;;;;;;;6.40;5.90;;;;;;;17.96;100.00;100103.42;108558;1258;60416;-53
2023/09/15 01:52:31;;;;;;;6.60;5.80;;;;;;;17.92;100.00;100108.84;108576;1260;60126;-53
2023/09/15 01:54:59;;;;;;;7.10;6.60;;;;;;;17.88;100.00;100111.45;108619;1257;71798;-53
2023/09/15 01:57:26;;;;;;;8.90;5.80;;;;;;;17.85;100.00;100111.71;108508;1257;66934;-53
2023/09/15 01:59:55;;;;;;;8.50;7.60;;;;;;;17.83;100.00;100114.54;108546;1259;72404;-53
2023/09/15 02:02:22;;;;;;;8.20;7.40;;;;;;;17.82;100.00;100119.35;108460;1257;60433;-52
2023/09/15 02:04:50;;;;;;;7.50;6.80;;;;;;;17.81;100.00;100115.64;108673;1256;59991;-51
2023/09/15 02:07:20;;;;;;;11.50;7.50;;;;;;;17.82;100.00;100122.29;108730;1257;73063;-52
2023/09/15 02:09:48;;;;;;;8.20;7.50;;;;;;;17.81;100.00;100124.84;108674;1258;66050;-51
2023/09/15 02:12:15;;;;;;;7.90;7.30;;;;;;;17.81;100.00;100123.05;108656;1260;74702;-52
2023/09/15 02:14:44;;;;;;;9.50;8.70;;;;;;;17.81;100.00;100125.10;108579;1257;61664;-52
2023/09/15 02:17:15;;;;;;;9.50;8.50;;;;;;;17.80;100.00;100124.98;108632;1263;58742;-52
2023/09/15 02:19:42;;;;;;;8.10;7.40;;;;;;;17.77;100.00;100123.89;108719;1260;73323;-53
2023/09/15 02:22:09;;;;;;;9.50;8.70;;;;;;;17.76;100.00;100128.67;108626;1257;66742;-52
2023/09/15 02:24:37;;;;;;;9.90;9.10;;;;;;;17.75;100.00;100130.00;107743;1257;71389;-50
2023/09/15 02:27:04;;;;;;;9.70;8.90;;;;;;;17.73;100.00;100130.50;104709;1262;59793;-52
2023/09/15 02:29:32;;;;;;;10.10;9.30;;;;;;;17.74;100.00;100133.20;104612;1258;59629;-50
2023/09/15 02:32:00;;;;;;;9.80;9.10;;;;;;;17.73;100.00;100140.66;104665;1260;71764;-52
2023/09/15 02:34:27;;;;;;;11.20;10.10;;;;;;;17.72;100.00;100140.57;104623;1260;67703;-52
2023/09/15 02:36:54;;;;;;;11.30;10.10;;;;;;;17.72;100.00;100138.59;104389;1258;72645;-52
2023/09/15 02:39:22;;;;;;;9.70;8.70;;;;;;;17.71;100.00;100137.56;104573;1257;60363;-50
2023/09/15 02:41:49;;;;;;;12.20;9.50;;;;;;;17.70;100.00;100138.72;104569;1260;59702;-49
2023/09/15 02:44:17;;;;;;;10.50;9.60;;;;;;;17.68;100.00;100140.85;104593;1266;73062;-50
2023/09/15 02:46:45;;;;;;;10.40;9.40;;;;;;;17.65;100.00;100139.64;104256;1257;68380;-50
2023/09/15 02:49:12;;;;;;;10.90;10.00;;;;;;;17.63;100.00;100142.90;104425;1258;72672;-51
2023/09/15 02:51:41;;;;;;;12.30;11.10;;;;;;;17.63;100.00;100149.05;104474;1257;60465;-49
2023/09/15 02:54:09;;;;;;;9.90;9.10;;;;;;;17.63;100.00;100148.34;104476;1262;59711;-51
2023/09/15 02:56:37;;;;;;;13.10;10.50;;;;;;;17.61;100.00;100156.92;104746;1263;73459;-50
2023/09/15 02:59:04;;;;;;;10.40;9.40;;;;;;;17.61;100.00;100154.58;104559;1263;66741;-52
2023/09/15 03:01:33;;;;;;;10.00;9.10;;;;;;;17.61;100.00;100155.14;104866;1260;71509;-53
2023/09/15 03:04:00;;;;;;;10.40;9.60;;;;;;;17.62;100.00;100156.51;104327;1261;61729;-50
2023/09/15 03:06:28;;;;;;;10.70;9.80;;;;;;;17.65;100.00;100153.79;104414;1262;59708;-52
2023/09/15 03:08:55;;;;;;;10.40;9.70;;;;;;;17.67;100.00;100155.81;104531;1263;73011;-51
2023/09/15 03:11:23;;;;;;;14.10;10.40;;;;;;;17.70;100.00;100158.34;105485;1257;67996;-51
2023/09/15 03:13:57;;;;;;;12.90;9.40;;;;;;;17.72;100.00;100165.08;104614;1261;72011;-52
2023/09/15 03:16:26;;;;;;;10.60;9.30;;;;;;;17.75;100.00;100163.06;104514;1264;61637;-52
2023/09/15 03:18:54;;;;;;;9.50;8.70;;;;;;;17.76;100.00;100160.25;104734;1257;60061;-50
2023/09/15 03:21:21;;;;;;;11.10;9.90;;;;;;;17.79;100.00;100167.69;104376;1264;73183;-51
2023/09/15 03:23:48;;;;;;;13.00;10.00;;;;;;;17.80;100.00;100169.60;104393;1260;65534;-52
2023/09/15 03:26:16;;;;;;;11.20;10.40;;;;;;;17.80;100.00;100170.89;104483;1260;72587;-52
2023/09/15 03:28:46;;;;;;;9.70;8.90;;;;;;;17.78;100.00;100174.11;105382;1260;61717;-51
2023/09/15 03:31:13;;;;;;;10.40;9.40;;;;;;;17.77;100.00;100182.57;104661;1260;59749;-52
2023/09/15 03:33:41;;;;;;;10.00;9.00;;;;;;;17.75;100.00;100181.05;106140;1260;73936;-51
2023/09/15 03:36:10;;;;;;;12.00;10.20;;;;;;;17.74;100.00;100185.45;104604;1261;67408;-51
2023/09/15 03:38:38;;;;;;;11.60;10.50;;;;;;;17.73;100.00;100188.62;104169;1263;71249;-50
2023/09/15 03:41:05;;;;;;;11.40;10.40;;;;;;;17.73;100.00;100192.58;104411;1261;62392;-52
2023/09/15 03:43:33;;;;;;;12.10;10.80;;;;;;;17.74;100.00;100200.52;104573;1263;61250;-50
2023/09/15 03:46:00;;;;;;;10.90;9.80;;;;;;;17.72;100.00;100203.73;104620;1263;73863;-50
2023/09/15 03:48:29;;;;;;;12.30;11.00;;;;;;;17.71;100.00;100206.35;104419;1263;65263;-51
2023/09/15 03:50:57;;;;;;;13.50;11.10;;;;;;;17.71;100.00;100210.34;104839;1263;72367;-50
2023/09/15 03:53:24;;;;;;;12.90;11.90;;;;;;;17.70;100.00;100209.53;104464;1261;60440;-51
2023/09/15 03:55:51;;;;;;;16.60;12.30;;;;;;;17.70;100.00;100212.22;104476;1261;60569;-50
2023/09/15 03:58:18;;;;;;;14.30;13.00;;;;;;;17.71;100.00;100214.67;104129;1257;73843;-49
2023/09/15 04:00:46;;;;;;;15.00;13.70;;;;;;;17.73;100.00;100210.58;104403;1265;65665;-51
2023/09/15 04:03:14;;;;;;;15.20;13.80;;;;;;;17.74;100.00;100214.66;104549;1263;71789;-51
2023/09/15 04:05:41;;;;;;;16.60;14.80;;;;;;;17.74;100.00;100217.20;104968;1257;61741;-52
2023/09/15 04:08:08;;;;;;;15.80;14.20;;;;;;;17.76;100.00;100219.42;104754;1259;60836;-53
2023/09/15 04:10:36;;;;;;;17.30;15.10;;;;;;;17.78;100.00;100216.94;104505;1254;73956;-52
2023/09/15 04:13:03;;;;;;;16.80;15.10;;;;;;;17.80;100.00;100221.54;104847;1254;65569;-51
2023/09/15 04:15:31;;;;;;;16.30;14.60;;;;;;;17.81;100.00;100227.29;104756;1257;70439;-51
2023/09/15 04:17:59;;;;;;;17.80;15.10;;;;;;;17.82;100.00;100227.55;104645;1257;60726;-51
2023/09/15 04:20:27;;;;;;;18.90;17.00;;;;;;;17.83;100.00;100230.73;106120;1254;59693;-51
2023/09/15 04:23:12;;;;;;;17.00;15.30;;;;;;;17.82;100.00;100234.24;108811;1257;72638;-52
2023/09/15 04:25:39;;;;;;;17.30;15.60;;;;;;;17.83;100.00;100237.45;106669;1257;68413;-50
2023/09/15 04:28:08;;;;;;;16.60;14.90;;;;;;;17.85;100.00;100243.12;107792;1254;72900;-51
2023/09/15 04:30:36;;;;;;;16.30;14.80;;;;;;;17.88;100.00;100241.81;105566;1258;60558;-52
2023/09/15 04:33:04;;;;;;;17.70;16.10;;;;;;;17.90;100.00;100244.79;108835;1253;59260;-53
2023/09/15 04:35:32;;;;;;;16.70;15.20;;;;;;;17.91;100.00;100243.61;108785;1254;72774;-52
2023/09/15 04:37:59;;;;;;;16.40;14.60;;;;;;;17.92;100.00;100250.62;108759;1254;65828;-53
2023/09/15 04:40:27;;;;;;;16.80;15.20;;;;;;;17.94;100.00;100246.87;108811;1254;72125;-52
2023/09/15 04:42:55;;;;;;;16.50;14.70;;;;;;;17.96;100.00;100246.52;108838;1254;61628;-53
2023/09/15 04:45:24;;;;;;;17.20;15.50;;;;;;;17.98;100.00;100245.81;108908;1257;60010;-52
2023/09/15 04:47:52;;;;;;;16.70;15.00;;;;;;;18.00;100.00;100247.30;108960;1254;73861;-52
2023/09/15 04:50:21;;;;;;;16.20;14.50;;;;;;;18.03;100.00;100241.31;108891;1256;67386;-52
2023/09/15 04:52:49;;;;;;;16.20;14.40;;;;;;;18.06;100.00;100242.50;108923;1254;72480;-53
2023/09/15 04:55:16;;;;;;;15.70;14.30;;;;;;;18.10;100.00;100245.37;108736;1253;60494;-52
2023/09/15 04:57:45;;;;;;;15.30;13.80;;;;;;;18.13;100.00;100244.91;108982;1254;58976;-52
2023/09/15 05:00:13;;;;;;;16.00;14.40;;;;;;;18.16;100.00;100248.34;108979;1254;71931;-52
2023/09/15 05:02:42;;;;;;;15.30;13.90;;;;;;;18.20;100.00;100249.51;108908;1254;68744;-52
2023/09/15 05:05:10;;;;;;;15.70;14.20;;;;;;;18.23;100.00;100251.31;108892;1257;72643;-52
2023/09/15 05:07:38;;;;;;;15.30;14.00;;;;;;;18.26;100.00;100254.05;108070;1256;61675;-51
2023/09/15 05:10:07;;;;;;;15.90;14.40;;;;;;;18.27;100.00;100254.10;104973;1260;60594;-52
2023/09/15 05:12:35;;;;;;;17.60;14.90;;;;;;;18.31;100.00;100254.53;104659;1260;73881;-51
2023/09/15 05:15:03;;;;;;;14.50;13.30;;;;;;;18.34;100.00;100256.13;104662;1261;65559;-51
2023/09/15 05:17:31;;;;;;;17.00;14.10;;;;;;;18.38;100.00;100259.13;104827;1259;74503;-50
2023/09/15 05:19:59;;;;;;;16.00;14.40;;;;;;;18.41;100.00;100264.19;105403;1259;61691;-51
2023/09/15 05:22:26;;;;;;;15.20;13.70;;;;;;;18.42;100.00;100267.73;104839;1260;60549;-51
2023/09/15 05:24:55;;;;;;;16.70;15.20;;;;;;;18.42;100.00;100270.95;104870;1260;76427;-50
2023/09/15 05:27:23;;;;;;;17.50;14.20;;;;;;;18.43;100.00;100272.90;104773;1262;67512;-50
2023/09/15 05:29:51;;;;;;;15.90;14.40;;;;;;;18.45;100.00;100280.98;105021;1255;71500;-49
2023/09/15 05:32:18;;;;;;;13.60;12.40;;;;;;;18.44;100.00;100282.12;104851;1257;61678;-51
2023/09/15 05:34:46;;;;;;;15.40;13.90;;;;;;;18.45;100.00;100285.69;105011;1259;60470;-50
2023/09/15 05:37:13;;;;;;;14.60;13.30;;;;;;;18.48;100.00;100285.65;104868;1259;74349;-51
2023/09/15 05:39:42;;;;;;;15.00;13.60;;;;;;;18.51;100.00;100288.71;105179;1254;66896;-50
2023/09/15 05:42:09;;;;;;;14.60;13.30;;;;;;;18.53;100.00;100284.74;104843;1257;70885;-51
2023/09/15 05:44:36;;;;;;;13.70;12.60;;;;;;;18.56;100.00;100288.50;104870;1254;61685;-50
2023/09/15 05:47:04;;;;;;;14.00;12.80;;;;;;;18.61;100.00;100292.73;104612;1263;60559;-50
2023/09/15 05:49:31;;;;;;;14.70;13.20;;;;;;;18.67;100.00;100298.46;104251;1259;73798;-51
2023/09/15 05:52:00;;;;;;;13.40;12.20;;;;;;;18.72;100.00;100302.60;104741;1260;65566;-51
2023/09/15 05:54:27;;;;;;;13.30;12.20;;;;;;;18.76;100.00;100305.27;106759;1258;72635;-51
2023/09/15 05:56:55;;;;;;;13.70;12.60;;;;;;;18.77;100.00;100305.56;104814;1261;62088;-51
2023/09/15 05:59:23;;;;;;;14.00;12.70;;;;;;;18.78;100.00;100309.98;104904;1260;60777;-50
2023/09/15 06:01:50;;;;;;;12.90;11.90;;;;;;;18.78;100.00;100312.70;104894;1255;74240;-51
2023/09/15 06:04:17;;;;;;;12.80;11.40;;;;;;;18.78;100.00;100316.19;105055;1254;67268;-51
2023/09/15 06:06:45;;;;;;;13.30;12.20;;;;;;;18.80;100.00;100318.36;105454;1254;71465;-51
2023/09/15 06:09:13;;;;;;;12.40;11.50;;;;;;;18.83;100.00;100317.81;105027;1258;62096;-51
2023/09/15 06:11:40;;;;;;;13.00;11.80;;;;;;;18.87;100.00;100315.73;104801;1260;60367;-50
2023/09/15 06:14:07;;;;;;;11.60;10.80;;;;;;;18.92;100.00;100321.17;104859;1254;73976;-50
2023/09/15 06:16:36;;;;;;;12.60;11.40;;;;;;;18.98;100.00;100326.39;104875;1259;65679;-50
2023/09/15 06:19:04;;;;;;;10.80;9.90;;;;;;;19.03;100.00;100327.64;104898;1260;72735;-51
2023/09/15 06:21:31;;;;;;;9.30;8.60;;;;;;;19.05;100.00;100331.11;104809;1259;60424;-52
2023/09/15 06:23:59;;;;;;;10.90;10.20;;;;;;;19.08;100.00;100335.40;104962;1255;59215;-51
2023/09/15 06:26:26;;;;;;;10.80;10.00;;;;;;;19.12;100.00;100339.17;104773;1254;74740;-51
2023/09/15 06:28:53;;;;;;;10.30;9.70;;;;;;;19.12;100.00;100342.58;105056;1260;65485;-51
2023/09/15 06:31:24;;;;;;;12.60;11.70;;;;;;;19.14;100.00;100347.58;105306;1262;71583;-52
2023/09/15 06:33:52;;;;;;;11.30;10.50;;;;;;;19.14;100.00;100353.89;105563;1254;61642;-50
2023/09/15 06:36:19;;;;;;;10.70;10.00;;;;;;;19.13;100.00;100357.23;104803;1260;60461;-51
2023/09/15 06:38:46;;;;;;;11.00;10.00;;;;;;;19.12;100.00;100364.98;105121;1253;72566;-50
2023/09/15 06:41:14;;;;;;;11.70;10.80;;;;;;;19.12;100.00;100370.05;104868;1260;65511;-51
2023/09/15 06:43:42;;;;;;;11.80;10.80;;;;;;;19.12;100.00;100373.68;104751;1258;70501;-51
2023/09/15 06:46:10;;;;;;;11.00;10.30;;;;;;;19.10;100.00;100375.62;104838;1260;60519;-51
2023/09/15 06:48:38;;;;;;;10.50;9.60;;;;;;;19.08;100.00;100379.07;105161;1259;60431;-52
2023/09/15 06:51:05;;;;;;;8.80;8.20;;;;;;;19.09;100.00;100383.77;104778;1253;73903;-51
2023/09/15 06:53:33;;;;;;;10.80;10.00;;;;;;;19.11;100.00;100387.76;104896;1258;66781;-52
2023/09/15 06:56:00;;;;;;;10.00;9.30;;;;;;;19.12;100.00;100386.83;109081;1254;72644;-53
2023/09/15 06:58:27;;;;;;;10.60;9.70;;;;;;;19.08;100.00;100390.91;105246;1259;60616;-50
2023/09/15 07:00:55;;;;;;;8.60;7.90;;;;;;;19.02;100.00;100394.10;104996;1260;60530;-51
2023/09/15 07:03:24;;;;;;;9.40;8.80;;;;;;;18.97;100.00;100394.78;105580;1260;73801;-52
2023/09/15 07:05:51;;;;;;;8.60;7.90;;;;;;;18.97;100.00;100396.77;105225;1260;66437;-52
2023/09/15 07:08:19;;;;;;;7.90;7.40;;;;;;;18.97;100.00;100400.64;104884;1257;72404;-52
2023/09/15 07:10:51;;;;;;;8.50;8.00;;;;;;;18.98;100.00;100402.98;104923;1257;60744;-51
2023/09/15 07:13:18;;;;;;;7.80;7.10;;;;;;;19.01;100.00;100401.27;104776;1255;60533;-52
2023/09/15 07:15:47;;;;;;;7.70;7.30;;;;;;;19.04;100.00;100408.16;104678;1260;73838;-50
2023/09/15 07:18:15;;;;;;;8.50;7.90;;;;;;;19.08;100.00;100408.55;105821;1255;66960;-52
2023/09/15 07:20:42;;;;;;;8.60;7.80;;;;;;;19.14;100.00;100408.14;104792;1259;70463;-52
2023/09/15 07:23:09;;;;;;;7.10;6.60;;;;;;;19.18;100.00;100410.20;104954;1260;61742;-51
2023/09/15 07:25:37;;;;;;;6.80;6.40;;;;;;;19.21;100.00;100411.00;104913;1254;61812;-53
2023/09/15 07:28:05;;;;;;;7.00;6.40;;;;;;;19.22;100.00;100410.58;104981;1255;72559;-52
2023/09/15 07:30:33;;;;;;;7.20;6.60;;;;;;;19.20;100.00;100410.55;105346;1259;65784;-53
2023/09/15 07:33:01;;;;;;;6.90;6.60;;;;;;;19.21;100.00;100413.23;105076;1260;71445;-53
2023/09/15 07:35:29;;;;;;;6.80;6.30;;;;;;;19.23;100.00;100420.11;105009;1258;60602;-52
2023/09/15 07:37:56;;;;;;;7.20;6.70;;;;;;;19.27;100.00;100422.23;104927;1259;60452;-52
2023/09/15 07:40:24;;;;;;;6.70;6.40;;;;;;;19.28;100.00;100426.54;105090;1260;71921;-53
2023/09/15 07:42:52;;;;;;;6.30;5.90;;;;;;;19.28;100.00;100426.14;104951;1254;65513;-52
2023/09/15 07:45:19;;;;;;;6.40;6.10;;;;;;;19.26;100.00;100428.27;108640;1257;71430;-52
2023/09/15 07:47:47;;;;;;;5.50;5.20;;;;;;;19.24;100.00;100430.27;104742;1257;62458;-52
2023/09/15 07:50:16;;;;;;;5.00;4.80;;;;;;;19.22;100.00;100435.45;104912;1259;60633;-54
2023/09/15 07:52:47;;;;;;;5.60;5.30;;;;;;;19.22;100.00;100438.83;104830;1259;73859;-53
2023/09/15 07:55:15;;;;;;;5.10;4.80;;;;;;;19.21;100.00;100445.75;105058;1257;65143;-52
2023/09/15 07:57:42;;;;;;;4.90;4.50;;;;;;;19.20;100.00;100455.51;104788;1253;71866;-53
2023/09/15 08:00:11;;;;;;;4.50;4.20;;;;;;;19.15;100.00;100459.48;105299;1255;60480;-53
2023/09/15 08:02:39;;;;;;;4.50;4.20;;;;;;;19.11;100.00;100460.34;105333;1259;60451;-52
2023/09/15 08:05:08;;;;;;;5.10;4.50;;;;;;;19.09;100.00;100466.52;106119;1258;74319;-52
2023/09/15 08:07:35;;;;;;;4.10;3.70;;;;;;;19.08;100.00;100468.94;104890;1254;67049;-50
2023/09/15 08:10:04;;;;;;;4.70;4.40;;;;;;;19.05;100.00;100477.69;104927;1255;73185;-52
2023/09/15 08:12:31;;;;;;;6.50;4.40;;;;;;;18.96;100.00;100478.88;106436;1258;63335;-50
2023/09/15 08:14:59;;;;;;;5.10;4.70;;;;;;;18.85;100.00;100480.36;104800;1260;61160;-52
2023/09/15 08:17:26;;;;;;;4.90;4.70;;;;;;;18.82;100.00;100482.99;104689;1259;72620;-51
2023/09/15 08:20:00;;;;;;;6.10;5.60;;;;;;;18.78;100.00;100485.44;104908;1254;66743;-51
2023/09/15 08:22:28;;;;;;;5.10;4.50;;;;;;;18.73;100.00;100482.88;105188;1255;71389;-52
2023/09/15 08:24:55;;;;;;;4.60;4.40;;;;;;;18.72;100.00;100485.48;105174;1254;60536;-51
2023/09/15 08:27:25;;;;;;;4.80;4.50;;;;;;;18.71;100.00;100487.23;104888;1254;60464;-52
2023/09/15 08:29:52;;;;;;;3.50;3.30;;;;;;;18.67;100.00;100487.53;105002;1254;72699;-50
2023/09/15 08:32:20;;;;;;;3.90;3.70;;;;;;;18.61;100.00;100490.30;104896;1254;67536;-52
2023/09/15 08:34:47;;;;;;;4.80;4.40;;;;;;;18.53;100.00;100487.17;105327;1257;71439;-52
2023/09/15 08:37:15;;;;;;;5.70;5.30;;;;;;;18.45;100.00;100495.90;104885;1254;61765;-53
2023/09/15 08:39:42;;;;;;;4.90;4.50;;;;;;;18.41;100.00;100498.22;105057;1258;62510;-51
2023/09/15 08:42:14;;;;;;;5.50;5.20;;;;;;;18.38;100.00;100500.44;104967;1257;72645;-52
2023/09/15 08:44:41;;;;;;;6.40;5.90;;;;;;;18.34;100.00;100504.69;104926;1259;65829;-52
2023/09/15 08:47:09;;;;;;;6.30;5.90;;;;;;;18.28;100.00;100511.08;105083;1264;72452;-50
2023/09/15 08:49:36;;;;;;;8.30;7.50;;;;;;;18.25;100.00;100514.60;104838;1254;63059;-51
2023/09/15 08:52:04;;;;;;;10.20;9.40;;;;;;;18.21;100.00;100520.46;104833;1260;61671;-52
2023/09/15 08:54:31;;;;;;;8.40;7.70;;;;;;;18.16;100.00;100524.79;105039;1254;74221;-51
2023/09/15 08:57:00;;;;;;;7.60;6.80;;;;;;;18.11;100.00;100528.58;104946;1258;66936;-50
2023/09/15 08:59:27;;;;;;;7.40;6.90;;;;;;;18.08;100.00;100529.16;105046;1254;73792;-51
2023/09/15 09:01:54;;;;;;;7.90;7.30;;;;;;;18.09;100.00;100533.11;105032;1254;63865;-51
2023/09/15 09:04:22;;;;;;;9.00;8.00;;;;;;;18.11;100.00;100528.41;104902;1254;60917;-51
2023/09/15 09:06:49;;;;;;;7.90;7.30;;;;;;;18.15;100.00;100530.14;105277;1254;73970;-50
2023/09/15 09:09:17;;;;;;;7.50;6.90;;;;;;;18.19;100.00;100528.27;104789;1260;67025;-52
2023/09/15 09:11:45;;;;;;;8.40;7.80;;;;;;;18.21;100.00;100525.21;104957;1254;72734;-52
2023/09/15 09:14:15;;;;;;;8.80;6.50;;;;;;;18.27;100.00;100530.61;105100;1253;60481;-52
2023/09/15 09:16:43;;;;;;;7.10;6.40;;;;;;;18.37;100.00;100532.99;104990;1258;60341;-50
2023/09/15 09:19:11;;;;;;;6.60;6.20;;;;;;;18.48;100.00;100534.61;105428;1254;72641;-50
2023/09/15 09:21:39;;;;;;;7.10;6.50;;;;;;;18.57;100.00;100536.19;104843;1257;65495;-52
2023/09/15 09:24:06;;;;;;;5.10;4.70;;;;;;;18.64;100.00;100538.42;104801;1258;71406;-51
2023/09/15 09:26:34;;;;;;;5.70;5.20;;;;;;;18.65;100.00;100540.88;105040;1255;60540;-51
2023/09/15 09:29:02;;;;;;;6.50;6.00;;;;;;;18.69;100.00;100541.74;105051;1259;60533;-51
2023/09/15 09:31:29;;;;;;;6.80;6.10;;;;;;;18.71;100.00;100547.55;104679;1254;73738;-52
2023/09/15 09:33:58;;;;;;;5.40;5.00;;;;;;;18.71;100.00;100549.79;104861;1257;65528;-52
2023/09/15 09:36:26;;;;;;;5.70;5.30;;;;;;;18.69;100.00;100554.84;104996;1260;71377;-52
2023/09/15 09:38:55;;;;;;;5.10;4.60;;;;;;;18.64;100.00;100559.69;104981;1258;61663;-53
2023/09/15 09:41:24;;;;;;;7.10;6.00;;;;;;;18.62;100.00;100559.17;104849;1259;60556;-51
2023/09/15 09:43:55;;;;;;;6.40;5.90;;;;;;;18.61;100.00;100563.92;105153;1257;76184;-52
2023/09/15 09:46:22;;;;;;;4.90;4.60;;;;;;;18.61;100.00;100565.77;105091;1254;67372;-52
2023/09/15 09:48:50;;;;;;;6.30;5.80;;;;;;;18.61;100.00;100564.67;104782;1257;72439;-51
2023/09/15 09:51:19;;;;;;;5.90;5.40;;;;;;;18.59;100.00;100565.70;104999;1259;60951;-51
2023/09/15 09:53:47;;;;;;;5.90;5.40;;;;;;;18.56;100.00;100566.95;104973;1253;61162;-50
2023/09/15 09:56:15;;;;;;;6.30;5.90;;;;;;;18.54;100.00;100567.83;105069;1258;73958;-50
2023/09/15 09:58:42;;;;;;;5.30;5.00;;;;;;;18.52;100.00;100567.59;104833;1258;67199;-52
2023/09/15 10:01:11;;;;;;;6.70;6.20;;;;;;;18.52;100.00;100572.55;105091;1254;73175;-51
2023/09/15 10:03:40;;;;;;;5.90;5.50;;;;;;;18.49;100.00;100574.70;105732;1254;61651;-50
2023/09/15 10:06:08;;;;;;;5.30;5.00;;;;;;;18.47;100.00;100579.70;104871;1254;60464;-50
2023/09/15 10:08:39;;;;;;;6.00;5.70;;;;;;;18.46;100.00;100582.93;105226;1258;72647;-50
2023/09/15 10:11:07;;;;;;;5.50;5.00;;;;;;;18.43;100.00;100581.27;105468;1253;66862;-50
2023/09/15 10:13:34;;;;;;;6.10;5.50;;;;;;;18.42;100.00;100589.92;104780;1254;71769;-50
2023/09/15 10:16:02;;;;;;;7.50;5.90;;;;;;;18.38;100.00;100585.23;104837;1254;61746;-51
2023/09/15 10:18:30;;;;;;;5.70;5.30;;;;;;;18.40;100.00;100590.77;105332;1257;60491;-51
2023/09/15 10:20:58;;;;;;;2.70;2.50;;;;;;;18.41;100.00;100601.05;104982;1257;72651;-50
2023/09/15 10:23:25;;;;;;;2.40;2.20;;;;;;;18.36;100.00;100599.56;104860;1254;67577;-51
2023/09/15 10:25:53;;;;;;;1.20;1.10;;;;;;;18.29;100.00;100595.71;104968;1254;70893;-51
2023/09/15 10:28:23;;;;;;;1.40;1.30;;;;;;;18.25;100.00;100598.86;108945;1254;60468;-52
2023/09/15 10:31:08;;;;;;;1.20;1.10;;;;;;;18.25;100.00;100606.70;108835;1254;60183;-51
2023/09/15 10:33:42;;;;;;;2.20;1.20;;;;;;;18.28;100.00;100608.86;108680;1261;73968;-51
2023/09/15 10:36:14;;;;;;;1.20;1.10;;;;;;;18.31;100.00;100610.63;108845;1254;66908;-51
2023/09/15 10:38:43;;;;;;;1.40;1.30;;;;;;;18.31;100.00;100612.83;108831;1254;71074;-52
2023/09/15 10:41:11;;;;;;;1.50;1.40;;;;;;;18.29;100.00;100615.31;109004;1253;59693;-52
2023/09/15 10:43:50;;;;;;;1.80;1.60;;;;;;;18.27;100.00;100615.48;109019;1254;60341;-51
2023/09/15 10:46:18;;;;;;;1.70;1.60;;;;;;;18.24;100.00;100619.69;109019;1254;73775;-51
2023/09/15 10:48:50;;;;;;;2.40;2.20;;;;;;;18.16;100.00;100615.65;108941;1254;66790;-51
2023/09/15 10:51:18;;;;;;;2.90;1.90;;;;;;;18.11;100.00;100620.52;108873;1257;72783;-51
2023/09/15 10:53:48;;;;;;;2.00;1.40;;;;;;;18.06;100.00;100622.99;108830;1257;62645;-51
2023/09/15 10:56:18;;;;;;;1.70;1.40;;;;;;;18.06;100.00;100621.39;109039;1254;59863;-51
2023/09/15 10:58:49;;;;;;;2.30;1.70;;;;;;;18.07;100.00;100621.87;109001;1254;73868;-51
2023/09/15 11:01:17;;;;;;;2.20;1.60;;;;;;;18.07;100.00;100625.09;108979;1254;67216;-52
2023/09/15 11:03:45;;;;;;;2.60;1.90;;;;;;;18.08;100.00;100627.96;108991;1253;71448;-51
2023/09/15 11:06:15;;;;;;;4.10;2.10;;;;;;;18.11;100.00;100627.03;108957;1257;61662;-51
2023/09/15 11:08:42;;;;;;;1.70;1.60;;;;;;;18.14;100.00;100634.10;107028;1254;61250;-51